sensor_id;sensor_type;location;lat;lon;timestamp;pressure;altitude;pressure_sealevel;temperature;humidity
49627;BME280;35527;54.616;39.786;2023-05-09T00:01:12;101384.22;;;5.00;58.22
49627;BME280;35527;54.616;39.786;2023-05-09T00:04:17;101396.31;;;5.10;58.64
49627;BME280;35527;54.616;39.786;2023-05-09T00:07:21;101366.19;;;4.89;58.69
49627;BME280;35527;54.616;39.786;2023-05-09T00:10:26;101387.63;;;5.01;59.31
49627;BME280;35527;54.616;39.786;2023-05-09T00:13:30;101395.38;;;5.02;59.90
49627;BME280;35527;54.616;39.786;2023-05-09T00:16:33;101379.91;;;4.96;61.04
49627;BME280;35527;54.616;39.786;2023-05-09T00:19:38;101403.09;;;5.04;61.91
49627;BME280;35527;54.616;39.786;2023-05-09T00:22:46;101397.91;;;5.01;61.49
49627;BME280;35527;54.616;39.786;2023-05-09T00:25:49;101393.50;;;4.84;61.03
49627;BME280;35527;54.616;39.786;2023-05-09T00:28:55;101396.94;;;4.88;60.92
49627;BME280;35527;54.616;39.786;2023-05-09T00:31:58;101384.03;;;4.79;60.94
49627;BME280;35527;54.616;39.786;2023-05-09T00:35:00;101384.03;;;4.79;60.75
49627;BME280;35527;54.616;39.786;2023-05-09T00:38:04;101405.56;;;4.96;61.10
49627;BME280;35527;54.616;39.786;2023-05-09T00:41:09;101384.88;;;4.81;61.31
49627;BME280;35527;54.616;39.786;2023-05-09T00:44:13;101390.09;;;4.88;60.66
49627;BME280;35527;54.616;39.786;2023-05-09T00:47:21;101371.38;;;4.97;60.47
49627;BME280;35527;54.616;39.786;2023-05-09T00:50:24;101384.22;;;5.00;60.08
49627;BME280;35527;54.616;39.786;2023-05-09T00:53:32;101386.69;;;4.91;61.73
49627;BME280;35527;54.616;39.786;2023-05-09T00:56:38;101400.38;;;4.91;61.69
49627;BME280;35527;54.616;39.786;2023-05-09T00:59:43;101415.91;;;5.05;61.49
49627;BME280;35527;54.616;39.786;2023-05-09T01:02:49;101408.28;;;5.11;61.84
49627;BME280;35527;54.616;39.786;2023-05-09T01:06:09;101391.13;;;5.09;60.65
49627;BME280;35527;54.616;39.786;2023-05-09T01:13:00;101391.88;;;4.92;61.07
49627;BME280;35527;54.616;39.786;2023-05-09T01:16:21;101405.56;;;4.96;60.66
49627;BME280;35527;54.616;39.786;2023-05-09T01:22:59;101404.84;;;5.11;60.21
49627;BME280;35527;54.616;39.786;2023-05-09T01:26:09;101409.97;;;5.11;59.82
49627;BME280;35527;54.616;39.786;2023-05-09T01:30:09;101401.47;;;5.13;59.82
49627;BME280;35527;54.616;39.786;2023-05-09T01:33:06;101387.69;;;5.04;59.54
49627;BME280;35527;54.616;39.786;2023-05-09T01:36:16;101407.47;;;5.17;59.26
49627;BME280;35527;54.616;39.786;2023-05-09T01:39:23;101410.81;;;5.07;59.62
49627;BME280;35527;54.616;39.786;2023-05-09T01:42:36;101392.75;;;4.96;59.85
49627;BME280;35527;54.616;39.786;2023-05-09T01:45:45;101402.13;;;4.94;60.20
49627;BME280;35527;54.616;39.786;2023-05-09T01:48:49;101415.09;;;5.09;60.69
49627;BME280;35527;54.616;39.786;2023-05-09T01:51:55;101422.91;;;5.18;60.22
49627;BME280;35527;54.616;39.786;2023-05-09T01:54:59;101403.88;;;5.00;59.95
49627;BME280;35527;54.616;39.786;2023-05-09T01:58:07;101394.41;;;4.91;60.97
49627;BME280;35527;54.616;39.786;2023-05-09T02:01:15;101412.50;;;5.05;61.37
49627;BME280;35527;54.616;39.786;2023-05-09T02:04:19;101408.16;;;4.99;61.79
49627;BME280;35527;54.616;39.786;2023-05-09T02:07:25;101414.16;;;5.00;63.40
49627;BME280;35527;54.616;39.786;2023-05-09T02:10:31;101397.03;;;5.00;63.86
49627;BME280;35527;54.616;39.786;2023-05-09T02:13:37;101392.00;;;5.08;63.92
49627;BME280;35527;54.616;39.786;2023-05-09T02:16:40;101416.81;;;5.10;64.29
49627;BME280;35527;54.616;39.786;2023-05-09T02:19:43;101398.97;;;5.21;63.79
49627;BME280;35527;54.616;39.786;2023-05-09T02:22:50;101424.72;;;5.35;63.47
49627;BME280;35527;54.616;39.786;2023-05-09T02:25:55;101407.59;;;5.31;64.29
49627;BME280;35527;54.616;39.786;2023-05-09T02:28:59;101416.25;;;5.42;63.93
49627;BME280;35527;54.616;39.786;2023-05-09T02:32:03;101412.78;;;5.35;64.37
49627;BME280;35527;54.616;39.786;2023-05-09T02:35:08;101423.97;;;5.45;63.58
49627;BME280;35527;54.616;39.786;2023-05-09T02:38:14;101423.97;;;5.45;62.44
49627;BME280;35527;54.616;39.786;2023-05-09T02:41:18;101435.91;;;5.40;61.71
49627;BME280;35527;54.616;39.786;2023-05-09T02:44:21;101409.41;;;5.41;61.92
49627;BME280;35527;54.616;39.786;2023-05-09T02:47:25;101401.75;;;5.47;61.36
49627;BME280;35527;54.616;39.786;2023-05-09T02:50:29;101418.97;;;5.63;62.58
49627;BME280;35527;54.616;39.786;2023-05-09T02:53:34;101411.31;;;5.70;61.98
49627;BME280;35527;54.616;39.786;2023-05-09T02:56:37;101428.56;;;5.91;60.68
49627;BME280;35527;54.616;39.786;2023-05-09T02:59:40;101413.19;;;5.94;60.02
49627;BME280;35527;54.616;39.786;2023-05-09T03:02:43;101423.59;;;6.17;59.31
49627;BME280;35527;54.616;39.786;2023-05-09T03:05:50;101429.66;;;6.29;58.21
49627;BME280;35527;54.616;39.786;2023-05-09T03:08:54;101435.69;;;6.41;57.75
49627;BME280;35527;54.616;39.786;2023-05-09T03:12:01;101431.47;;;6.55;56.77
49627;BME280;35527;54.616;39.786;2023-05-09T03:15:06;101411.75;;;6.48;55.20
49627;BME280;35527;54.616;39.786;2023-05-09T03:18:10;101432.34;;;6.52;54.70
49627;BME280;35527;54.616;39.786;2023-05-09T03:21:14;101424.56;;;6.43;55.92
49627;BME280;35527;54.616;39.786;2023-05-09T03:24:21;101438.34;;;6.61;56.00
49627;BME280;35527;54.616;39.786;2023-05-09T03:27:24;101441.84;;;6.76;55.39
49627;BME280;35527;54.616;39.786;2023-05-09T03:30:31;101435.84;;;6.79;55.17
49627;BME280;35527;54.616;39.786;2023-05-09T03:33:36;101444.44;;;6.86;54.36
49627;BME280;35527;54.616;39.786;2023-05-09T03:36:42;101441.03;;;6.94;53.79
49627;BME280;35527;54.616;39.786;2023-05-09T03:39:50;101441.06;;;7.17;52.96
49627;BME280;35527;54.616;39.786;2023-05-09T03:42:53;101446.25;;;7.56;51.14
49627;BME280;35527;54.616;39.786;2023-05-09T03:45:56;101451.38;;;7.66;51.03
49627;BME280;35527;54.616;39.786;2023-05-09T03:49:03;101447.97;;;7.71;50.55
49627;BME280;35527;54.616;39.786;2023-05-09T03:52:08;101435.06;;;7.74;50.75
49627;BME280;35527;54.616;39.786;2023-05-09T03:55:13;101457.34;;;8.04;50.36
49627;BME280;35527;54.616;39.786;2023-05-09T03:58:18;101434.91;;;8.33;49.35
49627;BME280;35527;54.616;39.786;2023-05-09T04:01:22;101437.34;;;8.72;47.98
49627;BME280;35527;54.616;39.786;2023-05-09T04:04:26;101449.16;;;9.14;46.98
49627;BME280;35527;54.616;39.786;2023-05-09T04:07:30;101453.31;;;9.34;47.31
49627;BME280;35527;54.616;39.786;2023-05-09T04:10:36;101462.44;;;9.78;48.23
49627;BME280;35527;54.616;39.786;2023-05-09T04:13:43;101468.94;;;10.17;46.95
49627;BME280;35527;54.616;39.786;2023-05-09T04:17:07;101452.78;;;9.97;47.64
49627;BME280;35527;54.616;39.786;2023-05-09T04:20:11;101475.00;;;10.16;47.80
49627;BME280;35527;54.616;39.786;2023-05-09T04:23:17;101452.13;;;10.55;47.03
49627;BME280;35527;54.616;39.786;2023-05-09T04:26:25;101470.09;;;10.69;46.81
49627;BME280;35527;54.616;39.786;2023-05-09T04:29:31;101472.53;;;10.79;46.44
49627;BME280;35527;54.616;39.786;2023-05-09T04:32:35;101466.00;;;10.49;47.16
49627;BME280;35527;54.616;39.786;2023-05-09T04:35:42;101467.34;;;10.81;46.10
49627;BME280;35527;54.616;39.786;2023-05-09T04:38:47;101469.50;;;12.60;42.03
49627;BME280;35527;54.616;39.786;2023-05-09T04:41:55;101464.69;;;15.13;37.04
49627;BME280;35527;54.616;39.786;2023-05-09T04:45:01;101456.88;;;17.95;31.81
49627;BME280;35527;54.616;39.786;2023-05-09T04:48:05;101458.06;;;18.09;30.22
49627;BME280;35527;54.616;39.786;2023-05-09T04:51:08;101471.03;;;17.05;30.50
49627;BME280;35527;54.616;39.786;2023-05-09T04:54:11;101474.19;;;15.95;31.52
49627;BME280;35527;54.616;39.786;2023-05-09T04:57:15;101450.88;;;15.11;33.12
49627;BME280;35527;54.616;39.786;2023-05-09T05:00:22;101468.00;;;15.20;33.45
49627;BME280;35527;54.616;39.786;2023-05-09T05:03:27;101473.84;;;15.26;33.30
49627;BME280;35527;54.616;39.786;2023-05-09T05:06:29;101469.94;;;16.41;31.90
49627;BME280;35527;54.616;39.786;2023-05-09T05:09:35;101438.81;;;17.26;30.61
49627;BME280;35527;54.616;39.786;2023-05-09T05:12:38;101469.94;;;18.16;29.54
49627;BME280;35527;54.616;39.786;2023-05-09T05:15:47;101463.53;;;18.02;29.83
49627;BME280;35527;54.616;39.786;2023-05-09T05:18:50;101449.25;;;17.69;30.05
49627;BME280;35527;54.616;39.786;2023-05-09T05:21:54;101463.38;;;17.65;30.60
49627;BME280;35527;54.616;39.786;2023-05-09T05:25:00;101448.50;;;18.27;29.11
49627;BME280;35527;54.616;39.786;2023-05-09T05:28:07;101464.97;;;17.48;30.05
49627;BME280;35527;54.616;39.786;2023-05-09T05:31:13;101467.31;;;18.16;29.16
49627;BME280;35527;54.616;39.786;2023-05-09T05:34:16;101462.56;;;20.07;27.44
49627;BME280;35527;54.616;39.786;2023-05-09T05:37:20;101462.97;;;20.48;25.64
49627;BME280;35527;54.616;39.786;2023-05-09T05:40:25;101470.06;;;19.80;25.94
49627;BME280;35527;54.616;39.786;2023-05-09T05:43:31;101463.28;;;22.12;23.81
49627;BME280;35527;54.616;39.786;2023-05-09T05:46:35;101458.94;;;23.50;21.27
49627;BME280;35527;54.616;39.786;2023-05-09T05:49:41;101451.25;;;24.23;21.15
49627;BME280;35527;54.616;39.786;2023-05-09T05:52:46;101432.22;;;25.40;19.81
49627;BME280;35527;54.616;39.786;2023-05-09T05:55:50;101445.47;;;25.98;18.87
49627;BME280;35527;54.616;39.786;2023-05-09T05:58:55;101461.13;;;24.71;18.21
49627;BME280;35527;54.616;39.786;2023-05-09T06:01:57;101458.00;;;24.90;18.86
49627;BME280;35527;54.616;39.786;2023-05-09T06:05:05;101441.63;;;24.72;17.16
49627;BME280;35527;54.616;39.786;2023-05-09T06:08:09;101439.34;;;22.58;18.18
49627;BME280;35527;54.616;39.786;2023-05-09T06:11:14;101445.50;;;21.11;19.85
49627;BME280;35527;54.616;39.786;2023-05-09T06:14:23;101453.09;;;19.70;20.81
49627;BME280;35527;54.616;39.786;2023-05-09T06:17:27;101448.66;;;17.62;22.36
49627;BME280;35527;54.616;39.786;2023-05-09T06:20:30;101447.81;;;16.03;24.09
49627;BME280;35527;54.616;39.786;2023-05-09T06:23:34;101436.97;;;16.84;24.24
49627;BME280;35527;54.616;39.786;2023-05-09T06:26:38;101440.13;;;20.66;19.59
49627;BME280;35527;54.616;39.786;2023-05-09T06:29:43;101433.00;;;21.61;17.81
49627;BME280;35527;54.616;39.786;2023-05-09T06:32:47;101418.81;;;21.92;17.56
49627;BME280;35527;54.616;39.786;2023-05-09T06:35:58;101426.38;;;22.12;17.38
49627;BME280;35527;54.616;39.786;2023-05-09T06:39:02;101423.63;;;22.42;17.13
49627;BME280;35527;54.616;39.786;2023-05-09T06:42:06;101403.47;;;23.88;15.82
49627;BME280;35527;54.616;39.786;2023-05-09T06:45:12;101416.28;;;25.98;14.71
49627;BME280;35527;54.616;39.786;2023-05-09T06:48:17;101427.63;;;26.22;14.20
49627;BME280;35527;54.616;39.786;2023-05-09T06:51:22;101392.91;;;24.99;14.10
49627;BME280;35527;54.616;39.786;2023-05-09T06:54:27;101408.69;;;23.37;15.49
49627;BME280;35527;54.616;39.786;2023-05-09T06:57:29;101418.41;;;24.52;14.90
49627;BME280;35527;54.616;39.786;2023-05-09T07:00:33;101418.16;;;25.62;14.34
49627;BME280;35527;54.616;39.786;2023-05-09T07:03:37;101406.19;;;22.11;15.53
49627;BME280;35527;54.616;39.786;2023-05-09T07:06:45;101392.78;;;23.11;16.34
49627;BME280;35527;54.616;39.786;2023-05-09T07:09:51;101401.75;;;22.12;16.33
49627;BME280;35527;54.616;39.786;2023-05-09T07:12:59;101421.31;;;22.92;15.59
49627;BME280;35527;54.616;39.786;2023-05-09T07:16:04;101409.72;;;21.23;17.01
49627;BME280;35527;54.616;39.786;2023-05-09T07:19:08;101402.94;;;22.90;16.51
49627;BME280;35527;54.616;39.786;2023-05-09T07:22:11;101399.72;;;25.14;14.97
49627;BME280;35527;54.616;39.786;2023-05-09T07:25:14;101398.25;;;25.10;14.88
49627;BME280;35527;54.616;39.786;2023-05-09T07:28:22;101389.91;;;23.42;15.27
49627;BME280;35527;54.616;39.786;2023-05-09T07:31:29;101379.44;;;20.05;17.32
49627;BME280;35527;54.616;39.786;2023-05-09T07:34:37;101391.34;;;20.28;17.89
49627;BME280;35527;54.616;39.786;2023-05-09T07:37:42;101391.47;;;20.74;17.72
49627;BME280;35527;54.616;39.786;2023-05-09T07:40:46;101385.22;;;20.11;18.07
49627;BME280;35527;54.616;39.786;2023-05-09T07:43:51;101370.34;;;17.97;19.44
49627;BME280;35527;54.616;39.786;2023-05-09T07:46:54;101370.88;;;19.33;18.87
49627;BME280;35527;54.616;39.786;2023-05-09T07:49:59;101359.03;;;20.89;18.18
49627;BME280;35527;54.616;39.786;2023-05-09T07:53:03;101376.56;;;22.49;17.33
49627;BME280;35527;54.616;39.786;2023-05-09T07:56:07;101372.59;;;22.56;16.73
49627;BME280;35527;54.616;39.786;2023-05-09T07:59:09;101385.75;;;21.86;17.50
49627;BME280;35527;54.616;39.786;2023-05-09T08:02:17;101352.06;;;21.77;17.02
49627;BME280;35527;54.616;39.786;2023-05-09T08:05:19;101365.72;;;21.84;16.92
49627;BME280;35527;54.616;39.786;2023-05-09T08:08:25;101353.81;;;23.15;15.90
49627;BME280;35527;54.616;39.786;2023-05-09T08:11:32;101339.44;;;23.57;15.69
49627;BME280;35527;54.616;39.786;2023-05-09T08:14:37;101330.69;;;23.82;15.77
49627;BME280;35527;54.616;39.786;2023-05-09T08:17:39;101311.56;;;23.15;16.08
49627;BME280;35527;54.616;39.786;2023-05-09T08:20:43;101326.53;;;22.75;16.00
49627;BME280;35527;54.616;39.786;2023-05-09T08:23:45;101312.06;;;23.20;16.13
49627;BME280;35527;54.616;39.786;2023-05-09T08:26:50;101330.56;;;24.34;15.99
49627;BME280;35527;54.616;39.786;2023-05-09T08:29:52;101321.16;;;24.30;15.32
49627;BME280;35527;54.616;39.786;2023-05-09T08:33:00;101324.03;;;24.99;14.86
49627;BME280;35527;54.616;39.786;2023-05-09T08:36:10;101305.00;;;25.05;14.75
49627;BME280;35527;54.616;39.786;2023-05-09T08:39:14;101310.09;;;24.48;14.67
49627;BME280;35527;54.616;39.786;2023-05-09T08:42:18;101317.16;;;23.87;15.57
49627;BME280;35527;54.616;39.786;2023-05-09T08:45:29;101294.53;;;23.45;15.91
49627;BME280;35527;54.616;39.786;2023-05-09T08:48:34;101294.31;;;22.97;17.64
49627;BME280;35527;54.616;39.786;2023-05-09T08:52:06;101308.22;;;21.47;18.40
49627;BME280;35527;54.616;39.786;2023-05-09T08:55:09;101297.28;;;21.68;18.04
49627;BME280;35527;54.616;39.786;2023-05-09T08:58:19;101306.88;;;21.40;17.94
49627;BME280;35527;54.616;39.786;2023-05-09T09:01:24;101294.72;;;20.63;19.05
49627;BME280;35527;54.616;39.786;2023-05-09T09:04:33;101291.09;;;20.18;19.27
49627;BME280;35527;54.616;39.786;2023-05-09T09:07:37;101270.78;;;19.06;20.42
49627;BME280;35527;54.616;39.786;2023-05-09T09:10:46;101300.94;;;18.24;20.42
49627;BME280;35527;54.616;39.786;2023-05-09T09:13:53;101259.63;;;17.54;21.55
49627;BME280;35527;54.616;39.786;2023-05-09T09:16:56;101297.69;;;17.22;21.78
49627;BME280;35527;54.616;39.786;2023-05-09T09:20:02;101267.00;;;17.65;21.58
49627;BME280;35527;54.616;39.786;2023-05-09T09:23:10;101282.34;;;17.53;21.63
49627;BME280;35527;54.616;39.786;2023-05-09T09:26:14;101289.25;;;16.73;22.53
49627;BME280;35527;54.616;39.786;2023-05-09T09:29:18;101251.06;;;17.50;21.81
49627;BME280;35527;54.616;39.786;2023-05-09T09:32:32;101291.03;;;17.15;21.64
49627;BME280;35527;54.616;39.786;2023-05-09T09:35:40;101270.31;;;17.89;20.56
49627;BME280;35527;54.616;39.786;2023-05-09T09:38:46;101277.59;;;18.01;20.46
49627;BME280;35527;54.616;39.786;2023-05-09T09:41:52;101258.56;;;18.34;20.37
49627;BME280;35527;54.616;39.786;2023-05-09T09:44:56;101261.75;;;19.45;19.32
49627;BME280;35527;54.616;39.786;2023-05-09T09:48:06;101242.25;;;19.66;19.13
49627;BME280;35527;54.616;39.786;2023-05-09T09:51:10;101256.41;;;18.78;19.59
49627;BME280;35527;54.616;39.786;2023-05-09T09:54:13;101256.34;;;18.07;20.72
49627;BME280;35527;54.616;39.786;2023-05-09T09:57:36;101257.69;;;17.97;21.08
49627;BME280;35527;54.616;39.786;2023-05-09T10:00:43;101246.97;;;17.64;21.58
49627;BME280;35527;54.616;39.786;2023-05-09T10:03:48;101248.09;;;18.87;20.75
49627;BME280;35527;54.616;39.786;2023-05-09T10:07:00;101201.38;;;18.94;19.95
49627;BME280;35527;54.616;39.786;2023-05-09T10:10:08;101246.94;;;19.93;19.46
49627;BME280;35527;54.616;39.786;2023-05-09T10:13:11;101207.22;;;20.59;19.68
49627;BME280;35527;54.616;39.786;2023-05-09T10:16:16;101218.13;;;20.37;18.57
49627;BME280;35527;54.616;39.786;2023-05-09T10:19:20;101249.13;;;20.00;18.85
49627;BME280;35527;54.616;39.786;2023-05-09T10:22:23;101247.34;;;19.85;19.11
49627;BME280;35527;54.616;39.786;2023-05-09T10:25:39;101236.84;;;19.69;18.90
49627;BME280;35527;54.616;39.786;2023-05-09T10:28:47;101211.72;;;18.80;19.44
49627;BME280;35527;54.616;39.786;2023-05-09T10:31:58;101205.00;;;17.65;20.01
49627;BME280;35527;54.616;39.786;2023-05-09T10:35:04;101203.84;;;16.94;21.54
49627;BME280;35527;54.616;39.786;2023-05-09T10:38:08;101216.53;;;17.61;21.87
49627;BME280;35527;54.616;39.786;2023-05-09T10:41:16;101212.63;;;18.27;20.45
49627;BME280;35527;54.616;39.786;2023-05-09T10:44:22;101207.41;;;17.70;21.04
49627;BME280;35527;54.616;39.786;2023-05-09T10:47:26;101204.72;;;16.52;23.12
49627;BME280;35527;54.616;39.786;2023-05-09T10:50:30;101184.09;;;15.80;23.80
49627;BME280;35527;54.616;39.786;2023-05-09T10:53:40;101203.06;;;16.29;24.17
49627;BME280;35527;54.616;39.786;2023-05-09T10:56:48;101177.22;;;15.99;23.53
49627;BME280;35527;54.616;39.786;2023-05-09T10:59:51;101197.06;;;16.67;23.18
49627;BME280;35527;54.616;39.786;2023-05-09T11:03:05;101200.84;;;16.82;22.66
49627;BME280;35527;54.616;39.786;2023-05-09T11:06:09;101182.72;;;15.71;23.62
49627;BME280;35527;54.616;39.786;2023-05-09T11:09:23;101194.19;;;15.42;23.75
49627;BME280;35527;54.616;39.786;2023-05-09T11:12:29;101170.25;;;15.07;24.20
49627;BME280;35527;54.616;39.786;2023-05-09T11:15:35;101178.94;;;15.54;24.31
49627;BME280;35527;54.616;39.786;2023-05-09T11:18:49;101159.16;;;15.94;23.93
49627;BME280;35527;54.616;39.786;2023-05-09T11:22:00;101164.88;;;16.67;23.89
49627;BME280;35527;54.616;39.786;2023-05-09T11:25:11;101159.84;;;17.03;23.31
49627;BME280;35527;54.616;39.786;2023-05-09T11:28:26;101154.56;;;17.81;22.88
49627;BME280;35527;54.616;39.786;2023-05-09T11:31:33;101134.53;;;17.61;22.03
49627;BME280;35527;54.616;39.786;2023-05-09T11:34:42;101136.59;;;17.35;22.56
49627;BME280;35527;54.616;39.786;2023-05-09T11:38:06;101151.47;;;17.34;22.08
49627;BME280;35527;54.616;39.786;2023-05-09T11:41:12;101128.72;;;17.16;21.74
49627;BME280;35527;54.616;39.786;2023-05-09T11:44:19;101141.41;;;17.44;22.18
49627;BME280;35527;54.616;39.786;2023-05-09T11:47:22;101120.84;;;17.73;21.84
49627;BME280;35527;54.616;39.786;2023-05-09T11:50:46;101134.84;;;17.54;21.71
49627;BME280;35527;54.616;39.786;2023-05-09T11:53:53;101123.50;;;18.09;21.24
49627;BME280;35527;54.616;39.786;2023-05-09T11:56:58;101115.16;;;18.01;21.22
49627;BME280;35527;54.616;39.786;2023-05-09T12:00:07;101120.63;;;17.41;21.64
49627;BME280;35527;54.616;39.786;2023-05-09T12:03:11;101115.16;;;17.08;21.64
49627;BME280;35527;54.616;39.786;2023-05-09T12:06:17;101100.16;;;17.30;21.37
49627;BME280;35527;54.616;39.786;2023-05-09T12:09:21;101111.81;;;17.04;21.54
49627;BME280;35527;54.616;39.786;2023-05-09T12:12:25;101097.69;;;16.69;22.83
49627;BME280;35527;54.616;39.786;2023-05-09T12:15:28;101092.00;;;16.39;23.53
49627;BME280;35527;54.616;39.786;2023-05-09T12:18:31;101108.06;;;15.65;23.67
49627;BME280;35527;54.616;39.786;2023-05-09T12:21:35;101118.84;;;15.34;24.42
49627;BME280;35527;54.616;39.786;2023-05-09T12:24:37;101102.63;;;15.02;24.66
49627;BME280;35527;54.616;39.786;2023-05-09T12:27:41;101121.00;;;15.23;25.05
49627;BME280;35527;54.616;39.786;2023-05-09T12:30:45;101108.13;;;14.95;25.15
49627;BME280;35527;54.616;39.786;2023-05-09T12:33:53;101113.72;;;14.84;24.91
49627;BME280;35527;54.616;39.786;2023-05-09T12:36:56;101112.13;;;14.80;24.73
49627;BME280;35527;54.616;39.786;2023-05-09T12:40:04;101104.91;;;14.88;24.73
49627;BME280;35527;54.616;39.786;2023-05-09T12:43:09;101085.03;;;14.84;25.49
49627;BME280;35527;54.616;39.786;2023-05-09T12:46:18;101090.19;;;15.32;25.05
49627;BME280;35527;54.616;39.786;2023-05-09T12:49:26;101073.41;;;15.84;23.81
49627;BME280;35527;54.616;39.786;2023-05-09T12:52:33;101065.59;;;15.84;23.83
49627;BME280;35527;54.616;39.786;2023-05-09T12:55:42;101069.38;;;15.53;24.34
49627;BME280;35527;54.616;39.786;2023-05-09T12:58:50;101055.44;;;15.54;23.56
49627;BME280;35527;54.616;39.786;2023-05-09T13:01:58;101053.38;;;15.40;23.45
49627;BME280;35527;54.616;39.786;2023-05-09T13:05:12;101035.72;;;15.47;24.26
49627;BME280;35527;54.616;39.786;2023-05-09T13:08:20;101036.13;;;15.14;23.35
49627;BME280;35527;54.616;39.786;2023-05-09T13:11:25;101052.03;;;15.30;24.33
49627;BME280;35527;54.616;39.786;2023-05-09T13:14:39;101040.13;;;15.67;23.73
49627;BME280;35527;54.616;39.786;2023-05-09T13:17:48;101033.53;;;15.80;23.21
49627;BME280;35527;54.616;39.786;2023-05-09T13:20:51;101022.41;;;15.53;23.69
49627;BME280;35527;54.616;39.786;2023-05-09T13:23:55;101041.47;;;15.11;23.78
49627;BME280;35527;54.616;39.786;2023-05-09T13:26:58;101035.88;;;14.75;24.59
49627;BME280;35527;54.616;39.786;2023-05-09T13:30:04;101031.84;;;14.66;24.81
49627;BME280;35527;54.616;39.786;2023-05-09T13:33:11;101020.72;;;14.84;25.93
49627;BME280;35527;54.616;39.786;2023-05-09T13:36:26;101009.38;;;15.09;25.34
49627;BME280;35527;54.616;39.786;2023-05-09T13:39:30;100996.13;;;14.92;25.46
49627;BME280;35527;54.616;39.786;2023-05-09T13:42:34;101014.00;;;15.02;24.45
49627;BME280;35527;54.616;39.786;2023-05-09T13:45:45;101025.34;;;15.23;25.51
49627;BME280;35527;54.616;39.786;2023-05-09T13:48:48;101009.31;;;15.32;25.23
49627;BME280;35527;54.616;39.786;2023-05-09T13:51:51;101012.72;;;15.35;24.74
49627;BME280;35527;54.616;39.786;2023-05-09T13:54:54;101011.63;;;15.40;24.17
49627;BME280;35527;54.616;39.786;2023-05-09T13:57:59;101010.00;;;15.38;24.53
49627;BME280;35527;54.616;39.786;2023-05-09T14:01:01;100999.69;;;15.35;25.07
49627;BME280;35527;54.616;39.786;2023-05-09T14:04:05;100982.25;;;15.13;23.82
49627;BME280;35527;54.616;39.786;2023-05-09T14:07:07;100996.56;;;15.25;24.93
49627;BME280;35527;54.616;39.786;2023-05-09T14:10:33;100999.38;;;15.20;25.33
49627;BME280;35527;54.616;39.786;2023-05-09T14:13:36;100996.41;;;15.29;24.88
49627;BME280;35527;54.616;39.786;2023-05-09T14:16:39;100995.78;;;15.45;24.62
49627;BME280;35527;54.616;39.786;2023-05-09T14:19:44;100986.22;;;15.45;23.51
49627;BME280;35527;54.616;39.786;2023-05-09T14:22:49;100976.38;;;15.30;24.82
49627;BME280;35527;54.616;39.786;2023-05-09T14:25:52;100990.63;;;15.21;24.74
49627;BME280;35527;54.616;39.786;2023-05-09T14:28:55;100973.16;;;15.01;24.44
49627;BME280;35527;54.616;39.786;2023-05-09T14:31:59;100998.03;;;15.10;26.13
49627;BME280;35527;54.616;39.786;2023-05-09T14:35:03;100983.78;;;14.97;25.44
49627;BME280;35527;54.616;39.786;2023-05-09T14:38:09;100984.06;;;14.89;25.62
49627;BME280;35527;54.616;39.786;2023-05-09T14:41:13;100979.00;;;14.62;25.94
49627;BME280;35527;54.616;39.786;2023-05-09T14:44:16;100962.06;;;14.49;25.67
49627;BME280;35527;54.616;39.786;2023-05-09T14:47:28;100984.47;;;14.55;26.07
49627;BME280;35527;54.616;39.786;2023-05-09T14:50:32;100988.50;;;14.63;26.04
49627;BME280;35527;54.616;39.786;2023-05-09T14:53:36;100982.69;;;14.57;25.56
49627;BME280;35527;54.616;39.786;2023-05-09T14:56:46;100945.19;;;14.36;26.08
49627;BME280;35527;54.616;39.786;2023-05-09T14:59:51;100953.06;;;14.59;25.71
49627;BME280;35527;54.616;39.786;2023-05-09T15:02:56;100984.66;;;14.74;26.23
49627;BME280;35527;54.616;39.786;2023-05-09T15:06:00;100961.84;;;14.57;26.25
49627;BME280;35527;54.616;39.786;2023-05-09T15:09:04;100962.31;;;14.43;25.36
49627;BME280;35527;54.616;39.786;2023-05-09T15:12:08;100986.81;;;14.62;26.79
49627;BME280;35527;54.616;39.786;2023-05-09T15:15:19;100964.84;;;14.45;26.59
49627;BME280;35527;54.616;39.786;2023-05-09T15:18:25;100981.59;;;14.37;26.39
49627;BME280;35527;54.616;39.786;2023-05-09T15:21:31;100985.03;;;14.14;26.37
49627;BME280;35527;54.616;39.786;2023-05-09T15:24:39;100976.88;;;13.98;26.36
49627;BME280;35527;54.616;39.786;2023-05-09T15:27:46;100962.47;;;13.63;27.58
49627;BME280;35527;54.616;39.786;2023-05-09T15:30:52;100980.53;;;13.68;27.49
49627;BME280;35527;54.616;39.786;2023-05-09T15:33:56;100976.63;;;13.81;28.14
49627;BME280;35527;54.616;39.786;2023-05-09T15:37:05;100967.22;;;13.77;27.42
49627;BME280;35527;54.616;39.786;2023-05-09T15:40:10;100963.53;;;13.58;27.72
49627;BME280;35527;54.616;39.786;2023-05-09T15:43:12;100970.38;;;13.60;27.74
49627;BME280;35527;54.616;39.786;2023-05-09T15:46:15;100967.47;;;13.69;28.01
49627;BME280;35527;54.616;39.786;2023-05-09T15:49:20;100961.63;;;13.63;27.68
49627;BME280;35527;54.616;39.786;2023-05-09T15:52:23;100962.59;;;13.60;28.12
49627;BME280;35527;54.616;39.786;2023-05-09T15:55:29;100953.53;;;13.45;27.97
49627;BME280;35527;54.616;39.786;2023-05-09T15:58:33;100963.09;;;13.45;28.53
49627;BME280;35527;54.616;39.786;2023-05-09T16:01:39;100940.06;;;13.33;28.42
49627;BME280;35527;54.616;39.786;2023-05-09T16:04:41;100908.63;;;13.12;28.79
49627;BME280;35527;54.616;39.786;2023-05-09T16:07:46;100947.88;;;13.33;28.48
49627;BME280;35527;54.616;39.786;2023-05-09T16:10:52;100943.56;;;13.32;28.91